Time,TemperatureF,DewpointF,PressureIn,WindDirection,WindDirectionDegrees,WindSpeedMPH,WindSpeedGustMPH,Humidity,HourlyPrecipIn,Conditions,Clouds,dailyrainin,SolarRadiationWatts/m^2,SoftwareType,DateUTC
2013-04-24 00:07:00,52.5,38.1,29.85,South,173,0.0,0.0,58,0.00,,,0.00,0,Wunderground v.1.15,2013-04-24 07:07:00,
2013-04-24 00:12:00,52.1,39.5,29.85,South,173,0.0,0.0,62,0.00,,,0.00,0,Wunderground v.1.15,2013-04-24 07:12:00,
2013-04-24 00:17:00,52.1,38.6,29.86,South,173,0.0,0.0,60,0.00,,,0.00,0,Wunderground v.1.15,2013-04-24 07:17:00,
2013-04-24 00:22:00,52.0,38.5,29.86,South,173,0.0,0.0,60,0.00,,,0.00,0,Wunderground v.1.15,2013-04-24 07:22:00,
2013-04-24 00:27:00,52.0,38.1,29.86,South,173,0.0,0.0,59,0.00,,,0.00,0,Wunderground v.1.15,2013-04-24 07:27:00,
2013-04-24 00:32:00,52.2,39.1,29.86,South,173,0.0,0.0,61,0.00,,,0.00,0,Wunderground v.1.15,2013-04-24 07:32:00,
2013-04-24 00:42:00,52.2,38.3,29.86,ESE,118,0.0,1.0,59,0.00,,,0.00,0,Wunderground v.1.15,2013-04-24 07:42:00,
2013-04-24 00:52:00,53.9,38.1,29.86,ESE,119,0.0,0.0,55,0.00,,,0.00,0,Wunderground v.1.15,2013-04-24 07:52:00,
2013-04-24 00:57:00,53.9,38.6,29.86,ESE,119,0.0,0.0,56,0.00,,,0.00,0,Wunderground v.1.15,2013-04-24 07:57:00,
2013-04-24 01:07:00,53.6,38.7,29.85,ESE,119,0.0,0.0,57,0.00,,,0.00,0,Wunderground v.1.15,2013-04-24 08:07:00,
2013-04-24 01:12:00,53.7,38.8,29.85,ESE,119,0.0,0.0,57,0.00,,,0.00,0,Wunderground v.1.15,2013-04-24 08:12:00,
2013-04-24 01:22:00,54.0,38.6,29.85,ESE,118,0.0,0.0,56,0.00,,,0.00,0,Wunderground v.1.15,2013-04-24 08:22:00,
2013-04-24 01:27:00,54.0,38.2,29.85,ESE,119,0.0,0.0,55,0.00,,,0.00,0,Wunderground v.1.15,2013-04-24 08:27:00,
2013-04-24 01:32:00,54.2,38.4,29.85,ESE,119,0.0,0.0,55,0.00,,,0.00,0,Wunderground v.1.15,2013-04-24 08:32:00,
2013-04-24 01:37:00,54.6,38.3,29.85,ESE,118,0.0,0.0,54,0.00,,,0.00,0,Wunderground v.1.15,2013-04-24 08:37:00,
2013-04-24 01:47:00,55.4,38.1,29.85,ESE,119,0.0,0.0,52,0.00,,,0.00,0,Wunderground v.1.15,2013-04-24 08:47:00,
2013-04-24 01:52:00,56.0,38.6,29.85,ESE,118,0.0,0.0,52,0.00,,,0.00,0,Wunderground v.1.15,2013-04-24 08:52:00,
2013-04-24 02:02:00,56.8,39.8,29.84,ESE,104,0.0,0.0,53,0.00,,,0.00,0,Wunderground v.1.15,2013-04-24 09:02:00,
2013-04-24 02:07:00,56.8,39.8,29.84,ESE,107,0.0,0.0,53,0.00,,,0.00,0,Wunderground v.1.15,2013-04-24 09:07:00,
2013-04-24 02:12:00,56.9,39.4,29.84,East,88,0.0,0.0,52,0.00,,,0.00,0,Wunderground v.1.15,2013-04-24 09:12:00,
2013-04-24 02:17:00,57.3,39.8,29.84,ESE,109,0.0,0.0,52,0.00,,,0.00,0,Wunderground v.1.15,2013-04-24 09:17:00,
2013-04-24 02:22:00,57.6,39.6,29.84,ESE,105,0.0,0.0,51,0.00,,,0.00,0,Wunderground v.1.15,2013-04-24 09:22:00,
2013-04-24 02:27:00,57.5,40.0,29.83,East,95,0.0,1.0,52,0.00,,,0.00,0,Wunderground v.1.15,2013-04-24 09:27:00,
2013-04-24 02:32:00,57.5,40.0,29.83,East,93,0.0,0.0,52,0.00,,,0.00,0,Wunderground v.1.15,2013-04-24 09:32:00,
2013-04-24 02:42:00,57.7,39.7,29.83,SE,140,0.0,0.0,51,0.00,,,0.00,0,Wunderground v.1.15,2013-04-24 09:42:00,
2013-04-24 02:52:00,58.0,40.0,29.82,ESE,103,0.0,0.0,51,0.00,,,0.00,0,Wunderground v.1.15,2013-04-24 09:52:00,
2013-04-24 02:57:00,57.7,39.7,29.82,East,100,0.0,0.0,51,0.00,,,0.00,0,Wunderground v.1.15,2013-04-24 09:57:00,
2013-04-24 03:07:00,57.4,39.4,29.82,East,92,0.0,0.0,51,0.00,,,0.00,0,Wunderground v.1.15,2013-04-24 10:07:00,
2013-04-24 03:12:00,56.9,39.9,29.82,East,92,0.0,0.0,53,0.00,,,0.00,0,Wunderground v.1.15,2013-04-24 10:12:00,
2013-04-24 03:17:00,56.4,39.0,29.82,East,92,0.0,0.0,52,0.00,,,0.00,0,Wunderground v.1.15,2013-04-24 10:17:00,
2013-04-24 03:22:00,56.6,39.2,29.82,East,100,0.0,0.0,52,0.00,,,0.00,0,Wunderground v.1.15,2013-04-24 10:22:00,
2013-04-24 03:27:00,56.8,38.9,29.82,ESE,107,0.0,1.0,51,0.00,,,0.00,0,Wunderground v.1.15,2013-04-24 10:27:00,
2013-04-24 03:32:00,57.2,38.7,29.82,ESE,116,0.0,0.0,50,0.00,,,0.00,0,Wunderground v.1.15,2013-04-24 10:32:00,
2013-04-24 03:42:00,57.2,38.7,29.82,ESE,116,0.0,0.0,50,0.00,,,0.00,0,Wunderground v.1.15,2013-04-24 10:42:00,
2013-04-24 03:52:00,55.8,38.4,29.82,ESE,116,0.0,0.0,52,0.00,,,0.00,0,Wunderground v.1.15,2013-04-24 10:52:00,
2013-04-24 03:57:00,55.6,38.2,29.82,ESE,117,0.0,0.0,52,0.00,,,0.00,0,Wunderground v.1.15,2013-04-24 10:57:00,
2013-04-24 04:02:00,55.4,39.0,29.82,ESE,117,0.0,0.0,54,0.00,,,0.00,0,Wunderground v.1.15,2013-04-24 11:02:00,
2013-04-24 04:07:00,55.4,39.0,29.82,ESE,117,0.0,0.0,54,0.00,,,0.00,0,Wunderground v.1.15,2013-04-24 11:07:00,
2013-04-24 04:12:00,55.8,38.4,29.82,ESE,117,0.0,0.0,52,0.00,,,0.00,0,Wunderground v.1.15,2013-04-24 11:12:00,
2013-04-24 04:17:00,56.2,38.8,29.82,ESE,119,0.0,0.0,52,0.00,,,0.00,0,Wunderground v.1.15,2013-04-24 11:17:00,
2013-04-24 04:22:00,56.2,38.8,29.82,ESE,119,0.0,0.0,52,0.00,,,0.00,0,Wunderground v.1.15,2013-04-24 11:22:00,
2013-04-24 04:27:00,56.4,38.5,29.82,ESE,118,0.0,0.0,51,0.00,,,0.00,0,Wunderground v.1.15,2013-04-24 11:27:00,
2013-04-24 04:32:00,56.6,38.7,29.82,ESE,118,0.0,0.0,51,0.00,,,0.00,0,Wunderground v.1.15,2013-04-24 11:32:00,
2013-04-24 04:37:00,56.9,38.9,29.82,ESE,118,0.0,0.0,51,0.00,,,0.00,0,Wunderground v.1.15,2013-04-24 11:37:00,
2013-04-24 04:42:00,56.4,39.0,29.81,ESE,118,0.0,0.0,52,0.00,,,0.00,0,Wunderground v.1.15,2013-04-24 11:42:00,
2013-04-24 04:52:00,55.1,38.7,29.81,ESE,118,0.0,0.0,54,0.00,,,0.00,0,Wunderground v.1.15,2013-04-24 11:52:00,
2013-04-24 04:57:00,55.1,38.3,29.81,ESE,117,0.0,0.0,53,0.00,,,0.00,0,Wunderground v.1.15,2013-04-24 11:57:00,
2013-04-24 05:02:00,55.1,38.3,29.81,ESE,119,0.0,0.0,53,0.00,,,0.00,0,Wunderground v.1.15,2013-04-24 12:02:00,
2013-04-24 05:12:00,55.4,38.5,29.81,ESE,119,0.0,0.0,53,0.00,,,0.00,0,Wunderground v.1.15,2013-04-24 12:12:00,
2013-04-24 05:22:00,55.7,38.3,29.81,NE,38,0.0,0.0,52,0.00,,,0.00,0,Wunderground v.1.15,2013-04-24 12:22:00,
2013-04-24 05:27:00,56.6,38.2,29.81,NNE,20,0.0,1.0,50,0.00,,,0.00,0,Wunderground v.1.15,2013-04-24 12:27:00,
2013-04-24 05:32:00,57.5,38.5,29.81,North,360,0.0,0.0,49,0.00,,,0.00,0,Wunderground v.1.15,2013-04-24 12:32:00,
2013-04-24 05:42:00,57.7,37.6,29.81,East,90,0.0,0.0,47,0.00,,,0.00,0,Wunderground v.1.15,2013-04-24 12:42:00,
2013-04-24 05:47:00,57.7,37.0,29.81,ENE,66,0.0,0.0,46,0.00,,,0.00,0,Wunderground v.1.15,2013-04-24 12:47:00,
2013-04-24 05:52:00,57.8,37.1,29.81,SSE,159,0.0,0.0,46,0.00,,,0.00,0,Wunderground v.1.15,2013-04-24 12:52:00,
2013-04-24 05:57:00,58.1,36.3,29.81,NNE,15,0.0,0.0,44,0.00,,,0.00,0,Wunderground v.1.15,2013-04-24 12:57:00,
2013-04-24 06:07:00,58.5,35.5,29.81,ENE,76,0.0,0.0,42,0.00,,,0.00,0,Wunderground v.1.15,2013-04-24 13:07:00,
2013-04-24 06:12:00,58.6,35.6,29.81,East,89,0.0,0.0,42,0.00,,,0.00,0,Wunderground v.1.15,2013-04-24 13:12:00,
2013-04-24 06:27:00,58.2,35.8,29.81,NE,44,0.0,0.0,43,0.00,,,0.00,7,Wunderground v.1.15,2013-04-24 13:27:00,
2013-04-24 06:32:00,57.6,37.5,29.81,NE,44,0.0,0.0,47,0.00,,,0.00,9,Wunderground v.1.15,2013-04-24 13:32:00,
2013-04-24 06:37:00,57.0,36.4,29.81,NE,44,0.0,0.0,46,0.00,,,0.00,11,Wunderground v.1.15,2013-04-24 13:37:00,
2013-04-24 06:47:00,55.3,37.5,29.81,NE,43,0.0,0.0,51,0.00,,,0.00,14,Wunderground v.1.15,2013-04-24 13:47:00,
2013-04-24 06:52:00,54.7,37.4,29.81,NE,43,0.0,0.0,52,0.00,,,0.00,16,Wunderground v.1.15,2013-04-24 13:52:00,
2013-04-24 06:57:00,55.4,34.9,29.81,NNE,29,0.0,0.0,46,0.00,,,0.00,18,Wunderground v.1.15,2013-04-24 13:57:00,
2013-04-24 07:02:00,56.3,36.8,29.82,ENE,65,0.0,0.0,48,0.00,,,0.00,19,Wunderground v.1.15,2013-04-24 14:02:00,
2013-04-24 07:12:00,56.9,34.6,29.82,North,11,0.0,0.0,43,0.00,,,0.00,25,Wunderground v.1.15,2013-04-24 14:12:00,
2013-04-24 07:17:00,57.6,34.1,29.82,NNE,15,0.0,0.0,41,0.00,,,0.00,26,Wunderground v.1.15,2013-04-24 14:17:00,
2013-04-24 07:22:00,57.7,36.5,29.82,NNE,17,0.0,0.0,45,0.00,,,0.00,30,Wunderground v.1.15,2013-04-24 14:22:00,
2013-04-24 07:27:00,57.9,33.1,29.82,ENE,63,0.0,0.0,39,0.00,,,0.00,28,Wunderground v.1.15,2013-04-24 14:27:00,
2013-04-24 07:37:00,58.5,36.1,29.82,NNE,22,0.0,0.0,43,0.00,,,0.00,32,Wunderground v.1.15,2013-04-24 14:37:00,
2013-04-24 07:47:00,58.9,37.0,29.83,ENE,67,0.0,0.0,44,0.00,,,0.00,33,Wunderground v.1.15,2013-04-24 14:47:00,
2013-04-24 07:52:00,59.3,40.1,29.83,ENE,65,0.0,0.0,49,0.00,,,0.00,35,Wunderground v.1.15,2013-04-24 14:52:00,
2013-04-24 07:57:00,59.8,38.4,29.83,North,360,0.0,0.0,45,0.00,,,0.00,37,Wunderground v.1.15,2013-04-24 14:57:00,
2013-04-24 08:02:00,60.8,35.7,29.83,NNW,348,0.0,0.0,39,0.00,,,0.00,39,Wunderground v.1.15,2013-04-24 15:02:00,
2013-04-24 08:12:00,62.1,34.1,29.83,NNW,345,0.0,0.0,35,0.00,,,0.00,44,Wunderground v.1.15,2013-04-24 15:12:00,
2013-04-24 08:17:00,62.4,32.1,29.83,NNW,346,0.0,1.0,32,0.00,,,0.00,47,Wunderground v.1.15,2013-04-24 15:17:00,
2013-04-24 08:27:00,63.6,33.2,29.83,NNE,22,0.0,2.0,32,0.00,,,0.00,56,Wunderground v.1.15,2013-04-24 15:27:00,
2013-04-24 08:32:00,64.3,36.8,29.83,North,11,0.0,0.0,36,0.00,,,0.00,135,Wunderground v.1.15,2013-04-24 15:32:00,
2013-04-24 08:37:00,65.0,32.8,29.83,NNW,337,1.0,4.0,30,0.00,,,0.00,179,Wunderground v.1.15,2013-04-24 15:37:00,
2013-04-24 08:47:00,66.2,30.3,29.83,NNW,342,0.0,1.0,26,0.00,,,0.00,88,Wunderground v.1.15,2013-04-24 15:47:00,
2013-04-24 08:52:00,66.8,31.7,29.84,North,360,0.0,0.0,27,0.00,,,0.00,65,Wunderground v.1.15,2013-04-24 15:52:00,
2013-04-24 09:02:00,68.1,33.7,29.83,NNE,15,0.0,0.0,28,0.00,,,0.00,144,Wunderground v.1.15,2013-04-24 16:02:00,
2013-04-24 09:07:00,68.2,37.2,29.83,NNE,31,0.0,0.0,32,0.00,,,0.00,86,Wunderground v.1.15,2013-04-24 16:07:00,
2013-04-24 09:17:00,69.3,30.9,29.83,NNW,344,1.0,1.0,24,0.00,,,0.00,206,Wunderground v.1.15,2013-04-24 16:17:00,
2013-04-24 09:22:00,70.1,35.5,29.83,NNW,340,1.0,1.0,28,0.00,,,0.00,471,Wunderground v.1.15,2013-04-24 16:22:00,
2013-04-24 09:32:00,70.7,30.0,29.83,SE,134,1.0,1.0,22,0.00,,,0.00,570,Wunderground v.1.15,2013-04-24 16:32:00,
2013-04-24 09:37:00,70.9,27.8,29.83,NNW,342,1.0,1.0,20,0.00,,,0.00,584,Wunderground v.1.15,2013-04-24 16:37:00,
2013-04-24 09:42:00,71.5,37.6,29.83,SE,146,1.0,2.0,29,0.00,,,0.00,601,Wunderground v.1.15,2013-04-24 16:42:00,
2013-04-24 09:47:00,72.5,34.7,29.83,NE,53,0.0,2.0,25,0.00,,,0.00,615,Wunderground v.1.15,2013-04-24 16:47:00,
2013-04-24 09:52:00,72.9,32.9,29.83,North,355,1.0,1.0,23,0.00,,,0.00,633,Wunderground v.1.15,2013-04-24 16:52:00,
2013-04-24 09:57:00,73.8,37.7,29.83,SSE,162,1.0,1.0,27,0.00,,,0.00,645,Wunderground v.1.15,2013-04-24 16:57:00,
2013-04-24 10:02:00,74.1,33.9,29.83,East,99,1.0,1.0,23,0.00,,,0.00,659,Wunderground v.1.15,2013-04-24 17:02:00,
2013-04-24 10:07:00,74.8,33.4,29.83,SSE,159,1.0,1.0,22,0.00,,,0.00,671,Wunderground v.1.15,2013-04-24 17:07:00,
2013-04-24 10:12:00,75.1,34.8,29.84,SW,227,1.0,1.0,23,0.00,,,0.00,687,Wunderground v.1.15,2013-04-24 17:12:00,
2013-04-24 10:17:00,75.9,34.3,29.84,ENE,61,1.0,1.0,22,0.00,,,0.00,700,Wunderground v.1.15,2013-04-24 17:17:00,
2013-04-24 10:22:00,76.3,33.5,29.83,North,349,1.0,1.0,21,0.00,,,0.00,710,Wunderground v.1.15,2013-04-24 17:22:00,
2013-04-24 10:32:00,77.1,34.1,29.83,WSW,242,1.0,1.0,21,0.00,,,0.00,737,Wunderground v.1.15,2013-04-24 17:32:00,
2013-04-24 10:37:00,77.3,34.3,29.83,North,5,1.0,1.0,21,0.00,,,0.00,747,Wunderground v.1.15,2013-04-24 17:37:00,
2013-04-24 10:42:00,77.6,30.7,29.84,SE,136,1.0,1.0,18,0.00,,,0.00,759,Wunderground v.1.15,2013-04-24 17:42:00,
2013-04-24 10:52:00,78.5,34.1,29.83,NNE,24,1.0,1.0,20,0.00,,,0.00,780,Wunderground v.1.15,2013-04-24 17:52:00,
2013-04-24 10:57:00,78.9,34.4,29.83,North,355,1.0,1.0,20,0.00,,,0.00,791,Wunderground v.1.15,2013-04-24 17:57:00,
2013-04-24 11:07:00,79.7,37.5,29.83,SSE,147,1.0,1.0,22,0.00,,,0.00,812,Wunderground v.1.15,2013-04-24 18:07:00,
2013-04-24 11:12:00,80.0,31.2,29.83,ESE,114,1.0,1.0,17,0.00,,,0.00,823,Wunderground v.1.15,2013-04-24 18:12:00,
2013-04-24 11:17:00,80.7,33.2,29.83,NNW,332,1.0,2.0,18,0.00,,,0.00,830,Wunderground v.1.15,2013-04-24 18:17:00,
2013-04-24 11:22:00,81.0,32.1,29.83,North,350,1.0,1.0,17,0.00,,,0.00,840,Wunderground v.1.15,2013-04-24 18:22:00,
2013-04-24 11:32:00,80.9,30.5,29.83,NNW,348,1.0,1.0,16,0.00,,,0.00,854,Wunderground v.1.15,2013-04-24 18:32:00,
2013-04-24 11:42:00,81.4,36.5,29.83,NNE,30,1.0,1.0,20,0.00,,,0.00,874,Wunderground v.1.15,2013-04-24 18:42:00,
2013-04-24 11:52:00,82.8,33.5,29.83,SSE,157,1.0,1.0,17,0.00,,,0.00,886,Wunderground v.1.15,2013-04-24 18:52:00,
2013-04-24 11:57:00,82.8,37.6,29.83,North,351,1.0,1.0,20,0.00,,,0.00,889,Wunderground v.1.15,2013-04-24 18:57:00,
2013-04-24 12:07:00,82.5,33.3,29.83,SW,223,0.0,5.0,17,0.00,,,0.00,902,Wunderground v.1.15,2013-04-24 19:07:00,
2013-04-24 12:12:00,81.8,46.4,29.83,SW,221,1.0,3.0,29,0.00,,,0.00,902,Wunderground v.1.15,2013-04-24 19:12:00,
2013-04-24 12:22:00,80.2,46.8,29.83,SW,224,1.0,1.0,31,0.00,,,0.00,907,Wunderground v.1.15,2013-04-24 19:22:00,
2013-04-24 12:27:00,79.7,47.2,29.82,NW,312,1.0,1.0,32,0.00,,,0.00,909,Wunderground v.1.15,2013-04-24 19:27:00,
2013-04-24 12:32:00,81.3,48.6,29.82,South,177,0.0,0.0,32,0.00,,,0.00,914,Wunderground v.1.15,2013-04-24 19:32:00,
2013-04-24 12:42:00,81.2,47.7,29.82,East,88,0.0,0.0,31,0.00,,,0.00,923,Wunderground v.1.15,2013-04-24 19:42:00,
2013-04-24 12:47:00,81.4,48.7,29.82,SSW,194,0.0,0.0,32,0.00,,,0.00,925,Wunderground v.1.15,2013-04-24 19:47:00,
2013-04-24 12:57:00,81.0,47.5,29.82,SSE,159,1.0,1.0,31,0.00,,,0.00,925,Wunderground v.1.15,2013-04-24 19:57:00,
2013-04-24 13:07:00,81.6,49.7,29.81,NW,316,0.0,1.0,33,0.00,,,0.00,926,Wunderground v.1.15,2013-04-24 20:07:00,
2013-04-24 13:12:00,81.9,44.6,29.81,West,274,0.0,0.0,27,0.00,,,0.00,923,Wunderground v.1.15,2013-04-24 20:12:00,
2013-04-24 13:22:00,82.0,44.7,29.81,WNW,296,0.0,0.0,27,0.00,,,0.00,928,Wunderground v.1.15,2013-04-24 20:22:00,
2013-04-24 13:27:00,82.0,44.7,29.81,ENE,67,0.0,0.0,27,0.00,,,0.00,925,Wunderground v.1.15,2013-04-24 20:27:00,
2013-04-24 13:37:00,83.1,45.7,29.81,SSW,198,0.0,3.0,27,0.00,,,0.00,921,Wunderground v.1.15,2013-04-24 20:37:00,
2013-04-24 13:47:00,82.7,44.3,29.81,SSE,166,0.0,0.0,26,0.00,,,0.00,918,Wunderground v.1.15,2013-04-24 20:47:00,
2013-04-24 13:52:00,83.2,43.7,29.80,ENE,69,0.0,0.0,25,0.00,,,0.00,914,Wunderground v.1.15,2013-04-24 20:52:00,
2013-04-24 14:02:00,82.8,43.4,29.80,ENE,76,0.0,0.0,25,0.00,,,0.00,898,Wunderground v.1.15,2013-04-24 21:02:00,
2013-04-24 14:12:00,82.4,42.0,29.80,SE,146,1.0,1.0,24,0.00,,,0.00,895,Wunderground v.1.15,2013-04-24 21:12:00,
2013-04-24 14:17:00,83.5,41.8,29.80,WSW,242,1.0,1.0,23,0.00,,,0.00,888,Wunderground v.1.15,2013-04-24 21:17:00,
2013-04-24 14:27:00,83.5,42.9,29.80,SW,229,1.0,3.0,24,0.00,,,0.00,877,Wunderground v.1.15,2013-04-24 21:27:00,
2013-04-24 14:32:00,83.2,40.4,29.80,SSW,196,0.0,2.0,22,0.00,,,0.00,874,Wunderground v.1.15,2013-04-24 21:32:00,
2013-04-24 14:37:00,83.2,37.9,29.80,NNW,336,0.0,2.0,20,0.00,,,0.00,865,Wunderground v.1.15,2013-04-24 21:37:00,
2013-04-24 14:47:00,83.7,38.4,29.79,NW,306,0.0,0.0,20,0.00,,,0.00,846,Wunderground v.1.15,2013-04-24 21:47:00,
2013-04-24 14:52:00,83.9,42.1,29.79,South,186,0.0,0.0,23,0.00,,,0.00,840,Wunderground v.1.15,2013-04-24 21:52:00,
2013-04-24 14:57:00,83.7,38.4,29.79,NNE,33,0.0,0.0,20,0.00,,,0.00,831,Wunderground v.1.15,2013-04-24 21:57:00,
2013-04-24 15:02:00,84.5,42.6,29.78,WNW,286,0.0,0.0,23,0.00,,,0.00,821,Wunderground v.1.15,2013-04-24 22:02:00,
2013-04-24 15:12:00,84.0,42.2,29.78,SE,132,0.0,0.0,23,0.00,,,0.00,802,Wunderground v.1.15,2013-04-24 22:12:00,
2013-04-24 15:17:00,84.5,44.8,29.78,East,82,0.0,1.0,25,0.00,,,0.00,793,Wunderground v.1.15,2013-04-24 22:17:00,
2013-04-24 15:27:00,83.6,39.5,29.77,NNW,344,1.0,4.0,21,0.00,,,0.00,766,Wunderground v.1.15,2013-04-24 22:27:00,
2013-04-24 15:32:00,84.1,41.1,29.77,SSE,154,0.0,0.0,22,0.00,,,0.00,756,Wunderground v.1.15,2013-04-24 22:32:00,
2013-04-24 15:42:00,84.3,37.5,29.77,NNE,26,0.0,1.0,19,0.00,,,0.00,729,Wunderground v.1.15,2013-04-24 22:42:00,
2013-04-24 15:52:00,84.2,38.8,29.76,South,169,0.0,0.0,20,0.00,,,0.00,710,Wunderground v.1.15,2013-04-24 22:52:00,
2013-04-24 15:57:00,83.4,39.4,29.76,SSW,208,1.0,3.0,21,0.00,,,0.00,696,Wunderground v.1.15,2013-04-24 22:57:00,
2013-04-24 16:02:00,84.3,38.9,29.76,South,178,1.0,2.0,20,0.00,,,0.00,684,Wunderground v.1.15,2013-04-24 23:02:00,
2013-04-24 16:12:00,84.2,37.5,29.76,SSE,159,0.0,1.0,19,0.00,,,0.00,657,Wunderground v.1.15,2013-04-24 23:12:00,
2013-04-24 16:17:00,84.1,39.9,29.76,SSW,206,0.0,1.0,21,0.00,,,0.00,640,Wunderground v.1.15,2013-04-24 23:17:00,
2013-04-24 16:22:00,84.5,37.7,29.75,West,265,0.0,1.0,19,0.00,,,0.00,628,Wunderground v.1.15,2013-04-24 23:22:00,
2013-04-24 16:27:00,84.0,41.1,29.75,North,355,0.0,1.0,22,0.00,,,0.00,615,Wunderground v.1.15,2013-04-24 23:27:00,
2013-04-24 16:32:00,83.7,38.4,29.75,North,10,0.0,0.0,20,0.00,,,0.00,596,Wunderground v.1.15,2013-04-24 23:32:00,
2013-04-24 16:37:00,83.9,38.5,29.75,NNW,340,0.0,0.0,20,0.00,,,0.00,582,Wunderground v.1.15,2013-04-24 23:37:00,
2013-04-24 16:42:00,83.4,38.1,29.75,NNW,342,0.0,0.0,20,0.00,,,0.00,568,Wunderground v.1.15,2013-04-24 23:42:00,
2013-04-24 16:52:00,83.5,39.4,29.75,NNW,338,1.0,1.0,21,0.00,,,0.00,534,Wunderground v.1.15,2013-04-24 23:52:00,
2013-04-24 17:02:00,83.2,36.6,29.75,South,187,0.0,0.0,19,0.00,,,0.00,499,Wunderground v.1.15,2013-04-25 00:02:00,
2013-04-24 17:07:00,82.5,37.4,29.75,SSE,157,0.0,0.0,20,0.00,,,0.00,483,Wunderground v.1.15,2013-04-25 00:07:00,
2013-04-24 17:17:00,82.1,37.0,29.75,West,265,1.0,3.0,20,0.00,,,0.00,454,Wunderground v.1.15,2013-04-25 00:17:00,
2013-04-24 17:22:00,82.1,38.3,29.75,SSE,147,0.0,0.0,21,0.00,,,0.00,434,Wunderground v.1.15,2013-04-25 00:22:00,
2013-04-24 17:27:00,81.9,39.3,29.74,ESE,113,0.0,0.0,22,0.00,,,0.00,417,Wunderground v.1.15,2013-04-25 00:27:00,
2013-04-24 17:37:00,81.1,36.2,29.74,ESE,117,1.0,2.0,20,0.00,,,0.00,378,Wunderground v.1.15,2013-04-25 00:37:00,
2013-04-24 17:42:00,80.9,39.6,29.74,WSW,258,0.0,1.0,23,0.00,,,0.00,360,Wunderground v.1.15,2013-04-25 00:42:00,
2013-04-24 17:47:00,80.3,36.8,29.75,WSW,238,0.0,1.0,21,0.00,,,0.00,346,Wunderground v.1.15,2013-04-25 00:47:00,
2013-04-24 17:52:00,79.9,36.5,29.74,WSW,258,0.0,0.0,21,0.00,,,0.00,329,Wunderground v.1.15,2013-04-25 00:52:00,
2013-04-24 18:02:00,79.1,35.8,29.74,NNW,346,0.0,1.0,21,0.00,,,0.00,125,Wunderground v.1.15,2013-04-25 01:02:00,
2013-04-24 18:07:00,78.4,37.5,29.75,NNE,24,0.0,1.0,23,0.00,,,0.00,74,Wunderground v.1.15,2013-04-25 01:07:00,
2013-04-24 18:12:00,77.8,37.0,29.75,NE,36,0.0,0.0,23,0.00,,,0.00,60,Wunderground v.1.15,2013-04-25 01:12:00,
2013-04-24 18:17:00,77.5,37.8,29.75,NNE,20,0.0,0.0,24,0.00,,,0.00,49,Wunderground v.1.15,2013-04-25 01:17:00,
2013-04-24 18:27:00,76.4,36.9,29.75,North,360,0.0,0.0,24,0.00,,,0.00,40,Wunderground v.1.15,2013-04-25 01:27:00,
2013-04-24 18:32:00,76.4,35.8,29.75,WNW,301,0.0,1.0,23,0.00,,,0.00,37,Wunderground v.1.15,2013-04-25 01:32:00,
2013-04-24 18:42:00,75.8,37.5,29.75,NE,47,0.0,1.0,25,0.00,,,0.00,33,Wunderground v.1.15,2013-04-25 01:42:00,
2013-04-24 18:52:00,75.1,39.8,29.75,WNW,296,0.0,0.0,28,0.00,,,0.00,30,Wunderground v.1.15,2013-04-25 01:52:00,
2013-04-24 18:57:00,73.9,38.7,29.75,WNW,296,0.0,0.0,28,0.00,,,0.00,28,Wunderground v.1.15,2013-04-25 01:57:00,
2013-04-24 19:02:00,73.0,38.9,29.75,NE,55,0.0,0.0,29,0.00,,,0.00,26,Wunderground v.1.15,2013-04-25 02:02:00,
2013-04-24 19:07:00,72.5,39.3,29.75,NE,56,0.0,0.0,30,0.00,,,0.00,25,Wunderground v.1.15,2013-04-25 02:07:00,
2013-04-24 19:12:00,72.0,38.9,29.75,NE,56,0.0,0.0,30,0.00,,,0.00,21,Wunderground v.1.15,2013-04-25 02:12:00,
2013-04-24 19:22:00,71.0,48.0,29.76,NE,52,0.0,0.0,44,0.00,,,0.00,18,Wunderground v.1.15,2013-04-25 02:22:00,
2013-04-24 19:27:00,70.1,48.4,29.76,NE,52,0.0,0.0,46,0.00,,,0.00,16,Wunderground v.1.15,2013-04-25 02:27:00,
2013-04-24 19:32:00,69.2,47.5,29.76,South,189,0.0,0.0,46,0.00,,,0.00,12,Wunderground v.1.15,2013-04-25 02:32:00,
2013-04-24 19:37:00,68.5,48.6,29.76,West,281,0.0,0.0,49,0.00,,,0.00,11,Wunderground v.1.15,2013-04-25 02:37:00,
2013-04-24 19:42:00,67.3,48.5,29.76,WNW,283,0.0,0.0,51,0.00,,,0.00,7,Wunderground v.1.15,2013-04-25 02:42:00,
2013-04-24 19:47:00,66.1,48.5,29.76,SE,124,0.0,0.0,53,0.00,,,0.00,5,Wunderground v.1.15,2013-04-25 02:47:00,
2013-04-24 19:52:00,65.2,48.6,29.77,SE,132,0.0,0.0,55,0.00,,,0.00,0,Wunderground v.1.15,2013-04-25 02:52:00,
2013-04-24 19:57:00,64.4,49.3,29.77,East,90,0.0,0.0,58,0.00,,,0.00,0,Wunderground v.1.15,2013-04-25 02:57:00,
2013-04-24 20:02:00,63.6,49.0,29.77,East,90,0.0,0.0,59,0.00,,,0.00,0,Wunderground v.1.15,2013-04-25 03:02:00,
2013-04-24 20:07:00,63.4,49.3,29.77,NE,41,0.0,1.0,60,0.00,,,0.00,0,Wunderground v.1.15,2013-04-25 03:07:00,
2013-04-24 20:17:00,62.7,49.5,29.78,ESE,123,0.0,0.0,62,0.00,,,0.00,0,Wunderground v.1.15,2013-04-25 03:17:00,
2013-04-24 20:22:00,62.2,49.4,29.78,South,172,0.0,0.0,63,0.00,,,0.00,0,Wunderground v.1.15,2013-04-25 03:22:00,
2013-04-24 20:27:00,61.8,49.5,29.78,ENE,71,0.0,1.0,64,0.00,,,0.00,0,Wunderground v.1.15,2013-04-25 03:27:00,
2013-04-24 20:32:00,61.4,49.5,29.78,ESE,113,0.0,0.0,65,0.00,,,0.00,0,Wunderground v.1.15,2013-04-25 03:32:00,
2013-04-24 20:42:00,60.4,49.0,29.79,NE,51,0.0,0.0,66,0.00,,,0.00,0,Wunderground v.1.15,2013-04-25 03:42:00,
2013-04-24 20:47:00,59.8,48.8,29.80,ENE,72,0.0,0.0,67,0.00,,,0.00,0,Wunderground v.1.15,2013-04-25 03:47:00,
2013-04-24 20:52:00,59.5,48.5,29.80,WSW,250,0.0,0.0,67,0.00,,,0.00,0,Wunderground v.1.15,2013-04-25 03:52:00,
2013-04-24 20:57:00,59.1,48.1,29.80,NNE,27,0.0,0.0,67,0.00,,,0.00,0,Wunderground v.1.15,2013-04-25 03:57:00,
2013-04-24 21:02:00,58.5,48.0,29.80,NNE,26,0.0,0.0,68,0.00,,,0.00,0,Wunderground v.1.15,2013-04-25 04:02:00,
2013-04-24 21:07:00,57.9,47.8,29.80,SSE,160,0.0,0.0,69,0.00,,,0.00,0,Wunderground v.1.15,2013-04-25 04:07:00,
2013-04-24 21:12:00,57.5,47.8,29.81,East,99,0.0,0.0,70,0.00,,,0.00,0,Wunderground v.1.15,2013-04-25 04:12:00,
2013-04-24 21:17:00,57.1,47.4,29.81,East,92,0.0,0.0,70,0.00,,,0.00,0,Wunderground v.1.15,2013-04-25 04:17:00,
2013-04-24 21:22:00,56.7,47.4,29.81,East,91,0.0,0.0,71,0.00,,,0.00,0,Wunderground v.1.15,2013-04-25 04:22:00,
2013-04-24 21:27:00,56.4,47.5,29.81,East,85,0.0,0.0,72,0.00,,,0.00,0,Wunderground v.1.15,2013-04-25 04:27:00,
2013-04-24 21:32:00,56.5,47.6,29.82,East,81,0.0,0.0,72,0.00,,,0.00,0,Wunderground v.1.15,2013-04-25 04:32:00,
2013-04-24 21:37:00,56.3,47.8,29.82,ENE,70,0.0,0.0,73,0.00,,,0.00,0,Wunderground v.1.15,2013-04-25 04:37:00,
2013-04-24 21:42:00,56.2,47.7,29.82,NE,39,0.0,0.0,73,0.00,,,0.00,0,Wunderground v.1.15,2013-04-25 04:42:00,
2013-04-24 21:47:00,56.0,47.5,29.82,ENE,78,0.0,0.0,73,0.00,,,0.00,0,Wunderground v.1.15,2013-04-25 04:47:00,
2013-04-24 21:57:00,55.6,47.1,29.83,ESE,120,0.0,0.0,73,0.00,,,0.00,0,Wunderground v.1.15,2013-04-25 04:57:00,
2013-04-24 22:02:00,55.2,47.1,29.82,ESE,123,0.0,0.0,74,0.00,,,0.00,0,Wunderground v.1.15,2013-04-25 05:02:00,
2013-04-24 22:07:00,54.8,47.0,29.82,NE,37,0.0,0.0,75,0.00,,,0.00,0,Wunderground v.1.15,2013-04-25 05:07:00,
2013-04-24 22:17:00,54.4,47.0,29.82,NE,53,0.0,1.0,76,0.00,,,0.00,0,Wunderground v.1.15,2013-04-25 05:17:00,
2013-04-24 22:22:00,54.3,46.9,29.82,East,90,0.0,0.0,76,0.00,,,0.00,0,Wunderground v.1.15,2013-04-25 05:22:00,
2013-04-24 22:27:00,54.2,47.1,29.83,ESE,111,0.0,0.0,77,0.00,,,0.00,0,Wunderground v.1.15,2013-04-25 05:27:00,
2013-04-24 22:32:00,54.0,47.0,29.83,SE,133,0.0,0.0,77,0.00,,,0.00,0,Wunderground v.1.15,2013-04-25 05:32:00,
2013-04-24 22:37:00,54.0,47.0,29.83,East,98,0.0,1.0,77,0.00,,,0.00,0,Wunderground v.1.15,2013-04-25 05:37:00,
2013-04-24 22:42:00,54.0,47.0,29.83,ESE,111,0.0,0.0,77,0.00,,,0.00,0,Wunderground v.1.15,2013-04-25 05:42:00,
2013-04-24 22:52:00,53.8,47.1,29.83,East,88,0.0,0.0,78,0.00,,,0.00,0,Wunderground v.1.15,2013-04-25 05:52:00,
2013-04-24 23:02:00,53.0,46.7,29.83,East,91,0.0,0.0,79,0.00,,,0.00,0,Wunderground v.1.15,2013-04-25 06:02:00,
2013-04-24 23:12:00,52.5,46.5,29.83,ESE,121,0.0,0.0,80,0.00,,,0.00,0,Wunderground v.1.15,2013-04-25 06:12:00,
2013-04-24 23:17:00,52.3,46.3,29.83,ESE,121,0.0,0.0,80,0.00,,,0.00,0,Wunderground v.1.15,2013-04-25 06:17:00,
2013-04-24 23:22:00,52.1,46.1,29.83,ESE,121,0.0,0.0,80,0.00,,,0.00,0,Wunderground v.1.15,2013-04-25 06:22:00,
2013-04-24 23:27:00,51.9,45.9,29.83,ESE,115,0.0,0.0,80,0.00,,,0.00,0,Wunderground v.1.15,2013-04-25 06:27:00,
2013-04-24 23:32:00,51.9,45.9,29.83,ESE,109,0.0,0.0,80,0.00,,,0.00,0,Wunderground v.1.15,2013-04-25 06:32:00,
2013-04-24 23:42:00,51.8,45.8,29.84,ESE,107,0.0,0.0,80,0.00,,,0.00,0,Wunderground v.1.15,2013-04-25 06:42:00,
2013-04-24 23:47:00,51.6,45.6,29.84,ESE,107,0.0,0.0,80,0.00,,,0.00,0,Wunderground v.1.15,2013-04-25 06:47:00,
2013-04-24 23:52:00,51.8,45.8,29.84,NNE,18,0.0,0.0,80,0.00,,,0.00,0,Wunderground v.1.15,2013-04-25 06:52:00,
2013-04-24 23:57:00,51.9,45.9,29.84,NNE,20,0.0,0.0,80,0.00,,,0.00,0,Wunderground v.1.15,2013-04-25 06:57:00,